KSJC/SJC METAR and TAF weather

Enter ICAO airport designator
Station Type Date Time Source
KSJC METAR 2021/01/22 06:53 UTC NOAA

KSJC 220653Z 02005KT 10SM SCT150 08/05 A3000 RMK AO2 SLP159 T00830050


Station Type Date Time Source
KSJC Decoded METAR 2021/01/22 06:53 UTC NOAA

SAN JOSE INTERNATIONAL AIRPORT, CA, United States (KSJC) 37-22N 121-55W 25M
Jan 22, 2021 - 01:53 AM EST / 2021.01.22 0653 UTC
Wind: from the NNE (020 degrees) at 6 MPH (5 KT):0
Visibility: 10 mile(s):0
Sky conditions: partly cloudy
Temperature: 46.9 F (8.3 C)
Dew Point: 41.0 F (5.0 C)
Relative Humidity: 79%
Pressure (altimeter): 30 in. Hg (1015 hPa)
ob: KSJC 220653Z 02005KT 10SM SCT150 08/05 A3000 RMK AO2 SLP159 T00830050
cycle: 7

Station Type Date Time Source
KSJC TAF 2021/01/22 06:36 UTC NOAA

TAF KSJC 220533Z 2206/2306 VRB03KT P6SM FEW050 SCT100
FM221100 14003KT P6SM OVC040
FM221500 16009KT P6SM VCSH OVC020
FM222000 30008KT 5SM -SHRA VCTS BKN020CB BKN050
FM222300 29007KT P6SM VCSH SCT025 BKN050
FM230400 VRB05KT P6SM FEW025 BKN050

Example: see airport list